sensor_id;sensor_type;location;lat;lon;timestamp;P1;durP1;ratioP1;P2;durP2;ratioP2
35245;SDS011;21379;50.962;6.960;2022-12-07T00:01:20;31.27;;;12.20;;
35245;SDS011;21379;50.962;6.960;2022-12-07T00:03:49;28.85;;;12.45;;
35245;SDS011;21379;50.962;6.960;2022-12-07T00:06:17;26.50;;;12.35;;
35245;SDS011;21379;50.962;6.960;2022-12-07T00:08:46;26.35;;;13.38;;
35245;SDS011;21379;50.962;6.960;2022-12-07T00:11:14;26.85;;;12.07;;
35245;SDS011;21379;50.962;6.960;2022-12-07T00:13:42;30.15;;;12.88;;
35245;SDS011;21379;50.962;6.960;2022-12-07T00:16:10;22.17;;;12.27;;
35245;SDS011;21379;50.962;6.960;2022-12-07T00:18:39;23.23;;;12.25;;
35245;SDS011;21379;50.962;6.960;2022-12-07T00:21:07;28.70;;;11.50;;
35245;SDS011;21379;50.962;6.960;2022-12-07T00:23:37;31.90;;;12.30;;
35245;SDS011;21379;50.962;6.960;2022-12-07T00:26:06;28.45;;;13.57;;
35245;SDS011;21379;50.962;6.960;2022-12-07T00:28:34;31.33;;;12.40;;
35245;SDS011;21379;50.962;6.960;2022-12-07T00:31:02;26.63;;;12.15;;
35245;SDS011;21379;50.962;6.960;2022-12-07T00:33:30;34.10;;;13.82;;
35245;SDS011;21379;50.962;6.960;2022-12-07T00:35:57;31.10;;;13.50;;
35245;SDS011;21379;50.962;6.960;2022-12-07T00:38:26;30.13;;;12.30;;
35245;SDS011;21379;50.962;6.960;2022-12-07T00:40:55;24.42;;;12.55;;
35245;SDS011;21379;50.962;6.960;2022-12-07T00:43:24;25.15;;;12.07;;
35245;SDS011;21379;50.962;6.960;2022-12-07T00:45:51;30.92;;;11.50;;
35245;SDS011;21379;50.962;6.960;2022-12-07T00:48:18;21.27;;;10.82;;
35245;SDS011;21379;50.962;6.960;2022-12-07T00:50:45;29.00;;;13.45;;
35245;SDS011;21379;50.962;6.960;2022-12-07T00:53:12;30.05;;;13.18;;
35245;SDS011;21379;50.962;6.960;2022-12-07T00:55:39;27.70;;;12.48;;
35245;SDS011;21379;50.962;6.960;2022-12-07T00:58:06;40.60;;;13.40;;
35245;SDS011;21379;50.962;6.960;2022-12-07T01:00:36;34.88;;;13.55;;
35245;SDS011;21379;50.962;6.960;2022-12-07T01:03:04;33.10;;;13.73;;
35245;SDS011;21379;50.962;6.960;2022-12-07T01:05:31;34.95;;;13.23;;
35245;SDS011;21379;50.962;6.960;2022-12-07T01:07:58;34.65;;;13.65;;
35245;SDS011;21379;50.962;6.960;2022-12-07T01:10:25;30.35;;;13.50;;
35245;SDS011;21379;50.962;6.960;2022-12-07T01:12:52;26.27;;;12.93;;
35245;SDS011;21379;50.962;6.960;2022-12-07T01:15:19;29.02;;;12.65;;
35245;SDS011;21379;50.962;6.960;2022-12-07T01:17:47;35.45;;;13.63;;
35245;SDS011;21379;50.962;6.960;2022-12-07T01:20:14;28.63;;;13.27;;
35245;SDS011;21379;50.962;6.960;2022-12-07T01:22:42;33.05;;;13.60;;
35245;SDS011;21379;50.962;6.960;2022-12-07T01:25:10;28.35;;;12.88;;
35245;SDS011;21379;50.962;6.960;2022-12-07T01:27:37;30.00;;;13.02;;
35245;SDS011;21379;50.962;6.960;2022-12-07T01:30:05;33.95;;;13.93;;
35245;SDS011;21379;50.962;6.960;2022-12-07T01:32:33;35.80;;;15.48;;
35245;SDS011;21379;50.962;6.960;2022-12-07T01:35:01;36.33;;;14.13;;
35245;SDS011;21379;50.962;6.960;2022-12-07T01:37:28;35.00;;;16.02;;
35245;SDS011;21379;50.962;6.960;2022-12-07T01:40:00;28.63;;;14.80;;
35245;SDS011;21379;50.962;6.960;2022-12-07T01:42:27;29.75;;;14.63;;
35245;SDS011;21379;50.962;6.960;2022-12-07T01:47:55;41.55;;;15.68;;
35245;SDS011;21379;50.962;6.960;2022-12-07T01:50:26;34.88;;;15.88;;
35245;SDS011;21379;50.962;6.960;2022-12-07T01:52:56;39.35;;;15.48;;
35245;SDS011;21379;50.962;6.960;2022-12-07T01:55:26;30.58;;;14.23;;
35245;SDS011;21379;50.962;6.960;2022-12-07T01:57:54;34.17;;;15.98;;
35245;SDS011;21379;50.962;6.960;2022-12-07T02:00:21;36.22;;;15.55;;
35245;SDS011;21379;50.962;6.960;2022-12-07T02:02:49;36.90;;;16.65;;
35245;SDS011;21379;50.962;6.960;2022-12-07T02:05:21;32.38;;;15.18;;
35245;SDS011;21379;50.962;6.960;2022-12-07T02:07:52;35.85;;;15.70;;
35245;SDS011;21379;50.962;6.960;2022-12-07T02:10:22;35.83;;;14.90;;
35245;SDS011;21379;50.962;6.960;2022-12-07T02:12:51;42.42;;;14.68;;
35245;SDS011;21379;50.962;6.960;2022-12-07T02:15:20;34.28;;;15.18;;
35245;SDS011;21379;50.962;6.960;2022-12-07T02:17:53;28.63;;;13.52;;
35245;SDS011;21379;50.962;6.960;2022-12-07T02:20:28;34.00;;;15.38;;
35245;SDS011;21379;50.962;6.960;2022-12-07T02:26:00;39.75;;;13.55;;
35245;SDS011;21379;50.962;6.960;2022-12-07T02:28:55;30.63;;;14.18;;
35245;SDS011;21379;50.962;6.960;2022-12-07T02:31:40;28.92;;;14.80;;
35245;SDS011;21379;50.962;6.960;2022-12-07T02:34:14;34.25;;;14.88;;
35245;SDS011;21379;50.962;6.960;2022-12-07T02:36:48;33.92;;;14.85;;
35245;SDS011;21379;50.962;6.960;2022-12-07T02:39:22;33.10;;;15.25;;
35245;SDS011;21379;50.962;6.960;2022-12-07T02:41:55;30.65;;;14.38;;
35245;SDS011;21379;50.962;6.960;2022-12-07T02:44:26;32.78;;;13.48;;
35245;SDS011;21379;50.962;6.960;2022-12-07T02:46:54;31.67;;;15.50;;
35245;SDS011;21379;50.962;6.960;2022-12-07T02:49:24;30.88;;;13.15;;
35245;SDS011;21379;50.962;6.960;2022-12-07T02:51:53;32.25;;;13.98;;
35245;SDS011;21379;50.962;6.960;2022-12-07T02:54:20;31.45;;;13.63;;
35245;SDS011;21379;50.962;6.960;2022-12-07T02:56:48;37.58;;;15.77;;
35245;SDS011;21379;50.962;6.960;2022-12-07T02:59:21;32.65;;;14.50;;
35245;SDS011;21379;50.962;6.960;2022-12-07T03:02:02;34.65;;;14.45;;
35245;SDS011;21379;50.962;6.960;2022-12-07T03:04:39;34.25;;;14.38;;
35245;SDS011;21379;50.962;6.960;2022-12-07T03:07:18;34.78;;;15.05;;
35245;SDS011;21379;50.962;6.960;2022-12-07T03:09:52;34.60;;;14.80;;
35245;SDS011;21379;50.962;6.960;2022-12-07T03:12:27;32.38;;;13.93;;
35245;SDS011;21379;50.962;6.960;2022-12-07T03:15:00;29.40;;;14.60;;
35245;SDS011;21379;50.962;6.960;2022-12-07T03:17:31;37.35;;;15.18;;
35245;SDS011;21379;50.962;6.960;2022-12-07T03:20:03;37.55;;;16.25;;
35245;SDS011;21379;50.962;6.960;2022-12-07T03:22:34;38.35;;;14.55;;
35245;SDS011;21379;50.962;6.960;2022-12-07T03:25:05;37.67;;;15.20;;
35245;SDS011;21379;50.962;6.960;2022-12-07T03:27:35;34.40;;;14.32;;
35245;SDS011;21379;50.962;6.960;2022-12-07T03:30:09;43.45;;;16.65;;
35245;SDS011;21379;50.962;6.960;2022-12-07T03:32:41;40.35;;;15.15;;
35245;SDS011;21379;50.962;6.960;2022-12-07T03:35:12;44.90;;;16.15;;
35245;SDS011;21379;50.962;6.960;2022-12-07T03:37:42;40.75;;;15.68;;
35245;SDS011;21379;50.962;6.960;2022-12-07T03:40:14;39.53;;;16.10;;
35245;SDS011;21379;50.962;6.960;2022-12-07T03:42:49;32.72;;;16.48;;
35245;SDS011;21379;50.962;6.960;2022-12-07T03:45:19;42.35;;;17.40;;
35245;SDS011;21379;50.962;6.960;2022-12-07T03:47:50;43.70;;;16.88;;
35245;SDS011;21379;50.962;6.960;2022-12-07T03:50:28;38.08;;;15.82;;
35245;SDS011;21379;50.962;6.960;2022-12-07T03:52:58;38.63;;;16.02;;
35245;SDS011;21379;50.962;6.960;2022-12-07T03:55:31;36.20;;;16.15;;
35245;SDS011;21379;50.962;6.960;2022-12-07T03:58:01;34.50;;;15.52;;
35245;SDS011;21379;50.962;6.960;2022-12-07T04:00:32;38.25;;;16.48;;
35245;SDS011;21379;50.962;6.960;2022-12-07T04:02:59;39.58;;;15.82;;
35245;SDS011;21379;50.962;6.960;2022-12-07T04:05:26;34.40;;;14.82;;
35245;SDS011;21379;50.962;6.960;2022-12-07T04:07:53;43.60;;;16.98;;
35245;SDS011;21379;50.962;6.960;2022-12-07T04:10:20;35.90;;;16.63;;
35245;SDS011;21379;50.962;6.960;2022-12-07T04:12:47;39.63;;;16.42;;
35245;SDS011;21379;50.962;6.960;2022-12-07T04:15:14;38.83;;;15.70;;
35245;SDS011;21379;50.962;6.960;2022-12-07T04:17:42;33.05;;;15.27;;
35245;SDS011;21379;50.962;6.960;2022-12-07T04:20:10;37.65;;;15.05;;
35245;SDS011;21379;50.962;6.960;2022-12-07T04:22:37;31.23;;;14.93;;
35245;SDS011;21379;50.962;6.960;2022-12-07T04:25:04;39.60;;;14.60;;
35245;SDS011;21379;50.962;6.960;2022-12-07T04:27:32;37.22;;;14.50;;
35245;SDS011;21379;50.962;6.960;2022-12-07T04:29:59;37.55;;;15.75;;
35245;SDS011;21379;50.962;6.960;2022-12-07T04:32:26;32.15;;;14.48;;
35245;SDS011;21379;50.962;6.960;2022-12-07T04:34:54;40.05;;;14.25;;
35245;SDS011;21379;50.962;6.960;2022-12-07T04:37:21;35.58;;;14.65;;
35245;SDS011;21379;50.962;6.960;2022-12-07T04:39:47;41.42;;;14.88;;
35245;SDS011;21379;50.962;6.960;2022-12-07T04:42:14;39.22;;;15.38;;
35245;SDS011;21379;50.962;6.960;2022-12-07T04:44:41;40.00;;;14.57;;
35245;SDS011;21379;50.962;6.960;2022-12-07T04:47:08;36.05;;;14.32;;
35245;SDS011;21379;50.962;6.960;2022-12-07T04:49:35;37.42;;;14.43;;
35245;SDS011;21379;50.962;6.960;2022-12-07T04:52:03;38.92;;;14.27;;
35245;SDS011;21379;50.962;6.960;2022-12-07T04:54:30;31.15;;;13.30;;
35245;SDS011;21379;50.962;6.960;2022-12-07T04:56:57;34.65;;;14.30;;
35245;SDS011;21379;50.962;6.960;2022-12-07T04:59:24;37.40;;;15.93;;
35245;SDS011;21379;50.962;6.960;2022-12-07T05:01:51;29.85;;;14.07;;
35245;SDS011;21379;50.962;6.960;2022-12-07T05:04:17;36.72;;;14.40;;
35245;SDS011;21379;50.962;6.960;2022-12-07T05:06:44;30.85;;;14.38;;
35245;SDS011;21379;50.962;6.960;2022-12-07T05:09:12;31.63;;;14.90;;
35245;SDS011;21379;50.962;6.960;2022-12-07T05:11:39;40.90;;;15.48;;
35245;SDS011;21379;50.962;6.960;2022-12-07T05:14:07;42.58;;;14.75;;
35245;SDS011;21379;50.962;6.960;2022-12-07T05:16:37;35.83;;;14.50;;
35245;SDS011;21379;50.962;6.960;2022-12-07T05:19:04;38.88;;;14.68;;
35245;SDS011;21379;50.962;6.960;2022-12-07T05:21:31;36.45;;;14.60;;
35245;SDS011;21379;50.962;6.960;2022-12-07T05:23:58;29.13;;;13.85;;
35245;SDS011;21379;50.962;6.960;2022-12-07T05:26:26;40.55;;;16.15;;
35245;SDS011;21379;50.962;6.960;2022-12-07T05:28:54;37.17;;;13.95;;
35245;SDS011;21379;50.962;6.960;2022-12-07T05:31:22;39.58;;;15.23;;
35245;SDS011;21379;50.962;6.960;2022-12-07T05:33:50;38.53;;;16.42;;
35245;SDS011;21379;50.962;6.960;2022-12-07T05:36:17;42.42;;;15.20;;
35245;SDS011;21379;50.962;6.960;2022-12-07T05:38:44;33.45;;;14.43;;
35245;SDS011;21379;50.962;6.960;2022-12-07T05:41:12;34.78;;;15.32;;
35245;SDS011;21379;50.962;6.960;2022-12-07T05:43:56;36.08;;;15.77;;
35245;SDS011;21379;50.962;6.960;2022-12-07T05:46:22;34.22;;;14.93;;
35245;SDS011;21379;50.962;6.960;2022-12-07T05:48:49;36.20;;;16.42;;
35245;SDS011;21379;50.962;6.960;2022-12-07T05:51:16;38.35;;;16.23;;
35245;SDS011;21379;50.962;6.960;2022-12-07T05:53:43;36.67;;;14.68;;
35245;SDS011;21379;50.962;6.960;2022-12-07T05:56:10;31.27;;;13.80;;
35245;SDS011;21379;50.962;6.960;2022-12-07T05:58:37;34.10;;;14.10;;
35245;SDS011;21379;50.962;6.960;2022-12-07T06:01:23;30.33;;;13.77;;
35245;SDS011;21379;50.962;6.960;2022-12-07T06:03:50;45.28;;;12.02;;
35245;SDS011;21379;50.962;6.960;2022-12-07T06:06:17;29.70;;;13.82;;
35245;SDS011;21379;50.962;6.960;2022-12-07T06:08:43;26.70;;;12.18;;
35245;SDS011;21379;50.962;6.960;2022-12-07T06:11:10;41.08;;;16.30;;
35245;SDS011;21379;50.962;6.960;2022-12-07T06:13:54;30.95;;;14.18;;
35245;SDS011;21379;50.962;6.960;2022-12-07T06:16:21;32.28;;;13.88;;
35245;SDS011;21379;50.962;6.960;2022-12-07T06:18:49;27.65;;;11.80;;
35245;SDS011;21379;50.962;6.960;2022-12-07T06:21:16;34.33;;;14.38;;
35245;SDS011;21379;50.962;6.960;2022-12-07T06:23:43;25.95;;;13.57;;
35245;SDS011;21379;50.962;6.960;2022-12-07T06:26:10;37.05;;;14.23;;
35245;SDS011;21379;50.962;6.960;2022-12-07T06:28:37;33.92;;;14.40;;
35245;SDS011;21379;50.962;6.960;2022-12-07T06:31:04;35.22;;;13.73;;
35245;SDS011;21379;50.962;6.960;2022-12-07T06:33:32;35.22;;;13.73;;
35245;SDS011;21379;50.962;6.960;2022-12-07T06:35:59;38.55;;;15.30;;
35245;SDS011;21379;50.962;6.960;2022-12-07T06:38:25;32.95;;;13.38;;
35245;SDS011;21379;50.962;6.960;2022-12-07T06:40:52;37.53;;;13.88;;
35245;SDS011;21379;50.962;6.960;2022-12-07T06:43:19;34.10;;;13.70;;
35245;SDS011;21379;50.962;6.960;2022-12-07T06:45:46;33.60;;;13.68;;
35245;SDS011;21379;50.962;6.960;2022-12-07T06:48:13;34.63;;;13.70;;
35245;SDS011;21379;50.962;6.960;2022-12-07T06:50:43;31.75;;;13.82;;
35245;SDS011;21379;50.962;6.960;2022-12-07T06:53:10;34.15;;;14.43;;
35245;SDS011;21379;50.962;6.960;2022-12-07T06:55:37;30.58;;;13.35;;
35245;SDS011;21379;50.962;6.960;2022-12-07T06:58:04;43.45;;;16.40;;
35245;SDS011;21379;50.962;6.960;2022-12-07T07:00:31;31.60;;;15.20;;
35245;SDS011;21379;50.962;6.960;2022-12-07T07:02:59;34.40;;;14.75;;
35245;SDS011;21379;50.962;6.960;2022-12-07T07:05:26;38.22;;;15.60;;
35245;SDS011;21379;50.962;6.960;2022-12-07T07:07:54;41.75;;;16.60;;
35245;SDS011;21379;50.962;6.960;2022-12-07T07:10:21;38.97;;;15.57;;
35245;SDS011;21379;50.962;6.960;2022-12-07T07:12:48;34.05;;;15.88;;
35245;SDS011;21379;50.962;6.960;2022-12-07T07:15:15;39.55;;;15.73;;
35245;SDS011;21379;50.962;6.960;2022-12-07T07:17:42;42.83;;;16.10;;
35245;SDS011;21379;50.962;6.960;2022-12-07T07:20:09;42.78;;;16.50;;
35245;SDS011;21379;50.962;6.960;2022-12-07T07:22:37;40.45;;;16.10;;
35245;SDS011;21379;50.962;6.960;2022-12-07T07:25:05;32.13;;;14.82;;
35245;SDS011;21379;50.962;6.960;2022-12-07T07:27:32;35.95;;;15.48;;
35245;SDS011;21379;50.962;6.960;2022-12-07T07:29:59;43.30;;;16.45;;
35245;SDS011;21379;50.962;6.960;2022-12-07T07:32:26;33.38;;;15.73;;
35245;SDS011;21379;50.962;6.960;2022-12-07T07:34:53;43.58;;;14.60;;
35245;SDS011;21379;50.962;6.960;2022-12-07T07:37:19;33.95;;;14.20;;
35245;SDS011;21379;50.962;6.960;2022-12-07T07:39:46;35.78;;;15.48;;
35245;SDS011;21379;50.962;6.960;2022-12-07T07:42:15;37.15;;;15.98;;
35245;SDS011;21379;50.962;6.960;2022-12-07T07:44:41;31.40;;;13.38;;
35245;SDS011;21379;50.962;6.960;2022-12-07T07:47:08;40.75;;;15.88;;
35245;SDS011;21379;50.962;6.960;2022-12-07T07:49:35;33.72;;;15.60;;
35245;SDS011;21379;50.962;6.960;2022-12-07T07:52:02;32.47;;;14.70;;
35245;SDS011;21379;50.962;6.960;2022-12-07T07:54:29;35.72;;;16.02;;
35245;SDS011;21379;50.962;6.960;2022-12-07T07:56:56;39.72;;;15.63;;
35245;SDS011;21379;50.962;6.960;2022-12-07T07:59:24;42.72;;;15.32;;
35245;SDS011;21379;50.962;6.960;2022-12-07T08:01:51;34.60;;;14.85;;
35245;SDS011;21379;50.962;6.960;2022-12-07T08:04:18;33.15;;;15.88;;
35245;SDS011;21379;50.962;6.960;2022-12-07T08:06:44;40.70;;;17.20;;
35245;SDS011;21379;50.962;6.960;2022-12-07T08:09:11;33.15;;;15.88;;
35245;SDS011;21379;50.962;6.960;2022-12-07T08:11:38;38.95;;;15.88;;
35245;SDS011;21379;50.962;6.960;2022-12-07T08:14:05;36.05;;;14.90;;
35245;SDS011;21379;50.962;6.960;2022-12-07T08:16:33;35.00;;;16.77;;
35245;SDS011;21379;50.962;6.960;2022-12-07T08:19:00;41.20;;;16.83;;
35245;SDS011;21379;50.962;6.960;2022-12-07T08:21:28;35.10;;;15.95;;
35245;SDS011;21379;50.962;6.960;2022-12-07T08:23:54;31.17;;;15.45;;
35245;SDS011;21379;50.962;6.960;2022-12-07T08:26:23;42.53;;;15.18;;
35245;SDS011;21379;50.962;6.960;2022-12-07T08:28:50;42.70;;;15.48;;
35245;SDS011;21379;50.962;6.960;2022-12-07T08:31:17;40.25;;;15.68;;
35245;SDS011;21379;50.962;6.960;2022-12-07T08:33:46;32.58;;;14.77;;
35245;SDS011;21379;50.962;6.960;2022-12-07T08:36:14;31.23;;;14.48;;
35245;SDS011;21379;50.962;6.960;2022-12-07T08:38:41;41.80;;;14.05;;
35245;SDS011;21379;50.962;6.960;2022-12-07T08:41:08;38.70;;;14.95;;
35245;SDS011;21379;50.962;6.960;2022-12-07T08:43:35;29.60;;;13.15;;
35245;SDS011;21379;50.962;6.960;2022-12-07T08:46:05;28.55;;;13.98;;
35245;SDS011;21379;50.962;6.960;2022-12-07T08:48:35;32.92;;;14.23;;
35245;SDS011;21379;50.962;6.960;2022-12-07T08:51:05;34.45;;;12.68;;
35245;SDS011;21379;50.962;6.960;2022-12-07T08:53:32;32.28;;;15.75;;
35245;SDS011;21379;50.962;6.960;2022-12-07T08:56:01;26.40;;;12.60;;
35245;SDS011;21379;50.962;6.960;2022-12-07T08:58:27;25.50;;;12.05;;
35245;SDS011;21379;50.962;6.960;2022-12-07T09:00:54;32.95;;;12.70;;
35245;SDS011;21379;50.962;6.960;2022-12-07T09:03:21;28.67;;;12.35;;
35245;SDS011;21379;50.962;6.960;2022-12-07T09:05:48;28.45;;;13.10;;
35245;SDS011;21379;50.962;6.960;2022-12-07T09:08:16;24.88;;;11.50;;
35245;SDS011;21379;50.962;6.960;2022-12-07T09:10:43;28.55;;;12.52;;
35245;SDS011;21379;50.962;6.960;2022-12-07T09:13:10;25.13;;;11.15;;
35245;SDS011;21379;50.962;6.960;2022-12-07T09:15:37;25.48;;;11.80;;
35245;SDS011;21379;50.962;6.960;2022-12-07T09:18:04;24.48;;;11.68;;
35245;SDS011;21379;50.962;6.960;2022-12-07T09:20:31;35.92;;;12.48;;
35245;SDS011;21379;50.962;6.960;2022-12-07T09:22:57;26.33;;;10.23;;
35245;SDS011;21379;50.962;6.960;2022-12-07T09:25:25;25.48;;;11.23;;
35245;SDS011;21379;50.962;6.960;2022-12-07T09:27:55;24.80;;;11.75;;
35245;SDS011;21379;50.962;6.960;2022-12-07T09:30:22;20.92;;;10.30;;
35245;SDS011;21379;50.962;6.960;2022-12-07T09:32:49;37.65;;;10.98;;
35245;SDS011;21379;50.962;6.960;2022-12-07T09:35:16;28.88;;;10.35;;
35245;SDS011;21379;50.962;6.960;2022-12-07T09:37:43;21.60;;;11.18;;
35245;SDS011;21379;50.962;6.960;2022-12-07T09:40:10;32.45;;;12.15;;
35245;SDS011;21379;50.962;6.960;2022-12-07T09:42:39;27.63;;;10.70;;
35245;SDS011;21379;50.962;6.960;2022-12-07T09:45:12;28.45;;;11.10;;
35245;SDS011;21379;50.962;6.960;2022-12-07T09:47:42;23.10;;;10.65;;
35245;SDS011;21379;50.962;6.960;2022-12-07T09:50:12;23.50;;;10.20;;
35245;SDS011;21379;50.962;6.960;2022-12-07T09:52:41;30.23;;;11.60;;
35245;SDS011;21379;50.962;6.960;2022-12-07T09:55:11;26.55;;;10.85;;
35245;SDS011;21379;50.962;6.960;2022-12-07T09:57:41;23.30;;;9.70;;
35245;SDS011;21379;50.962;6.960;2022-12-07T10:00:11;30.08;;;9.35;;
35245;SDS011;21379;50.962;6.960;2022-12-07T10:02:40;24.52;;;9.52;;
35245;SDS011;21379;50.962;6.960;2022-12-07T10:05:10;25.75;;;9.85;;
35245;SDS011;21379;50.962;6.960;2022-12-07T10:07:40;23.05;;;9.18;;
35245;SDS011;21379;50.962;6.960;2022-12-07T10:10:10;23.52;;;8.32;;
35245;SDS011;21379;50.962;6.960;2022-12-07T10:12:55;26.90;;;9.00;;
35245;SDS011;21379;50.962;6.960;2022-12-07T10:15:38;16.65;;;7.50;;
35245;SDS011;21379;50.962;6.960;2022-12-07T10:18:16;15.52;;;6.10;;
35245;SDS011;21379;50.962;6.960;2022-12-07T10:20:45;34.28;;;9.80;;
35245;SDS011;21379;50.962;6.960;2022-12-07T10:23:13;18.17;;;7.85;;
35245;SDS011;21379;50.962;6.960;2022-12-07T10:25:42;16.70;;;8.10;;
35245;SDS011;21379;50.962;6.960;2022-12-07T10:28:12;17.73;;;8.57;;
35245;SDS011;21379;50.962;6.960;2022-12-07T10:30:48;21.08;;;9.00;;
35245;SDS011;21379;50.962;6.960;2022-12-07T10:33:27;25.65;;;8.75;;
35245;SDS011;21379;50.962;6.960;2022-12-07T10:35:56;20.42;;;7.82;;
35245;SDS011;21379;50.962;6.960;2022-12-07T10:38:24;22.85;;;7.10;;
35245;SDS011;21379;50.962;6.960;2022-12-07T10:41:02;14.93;;;7.03;;
35245;SDS011;21379;50.962;6.960;2022-12-07T10:43:31;18.63;;;7.60;;
35245;SDS011;21379;50.962;6.960;2022-12-07T10:46:07;17.45;;;6.20;;
35245;SDS011;21379;50.962;6.960;2022-12-07T10:48:53;22.40;;;8.45;;
35245;SDS011;21379;50.962;6.960;2022-12-07T10:51:30;14.90;;;6.85;;
35245;SDS011;21379;50.962;6.960;2022-12-07T10:54:09;14.35;;;6.22;;
35245;SDS011;21379;50.962;6.960;2022-12-07T10:56:43;17.05;;;6.53;;
35245;SDS011;21379;50.962;6.960;2022-12-07T10:59:27;17.63;;;7.53;;
35245;SDS011;21379;50.962;6.960;2022-12-07T11:02:11;21.27;;;7.28;;
35245;SDS011;21379;50.962;6.960;2022-12-07T11:04:57;14.73;;;5.75;;
35245;SDS011;21379;50.962;6.960;2022-12-07T11:07:35;16.83;;;6.70;;
35245;SDS011;21379;50.962;6.960;2022-12-07T11:10:08;18.90;;;6.90;;
35245;SDS011;21379;50.962;6.960;2022-12-07T11:12:53;18.20;;;6.45;;
35245;SDS011;21379;50.962;6.960;2022-12-07T11:15:33;16.88;;;6.80;;
35245;SDS011;21379;50.962;6.960;2022-12-07T11:18:11;15.07;;;6.57;;
35245;SDS011;21379;50.962;6.960;2022-12-07T11:20:49;11.52;;;5.97;;
35245;SDS011;21379;50.962;6.960;2022-12-07T11:23:21;13.43;;;6.03;;
35245;SDS011;21379;50.962;6.960;2022-12-07T11:25:59;20.55;;;6.95;;
35245;SDS011;21379;50.962;6.960;2022-12-07T11:28:34;13.57;;;5.30;;
35245;SDS011;21379;50.962;6.960;2022-12-07T11:31:14;21.25;;;5.25;;
35245;SDS011;21379;50.962;6.960;2022-12-07T11:33:49;22.80;;;6.35;;
35245;SDS011;21379;50.962;6.960;2022-12-07T11:36:31;15.75;;;6.10;;
35245;SDS011;21379;50.962;6.960;2022-12-07T11:39:03;22.08;;;6.13;;
35245;SDS011;21379;50.962;6.960;2022-12-07T11:41:36;17.77;;;6.57;;
35245;SDS011;21379;50.962;6.960;2022-12-07T11:44:06;16.75;;;6.75;;
35245;SDS011;21379;50.962;6.960;2022-12-07T11:46:42;19.88;;;6.90;;
35245;SDS011;21379;50.962;6.960;2022-12-07T11:49:19;16.10;;;5.65;;
35245;SDS011;21379;50.962;6.960;2022-12-07T11:51:51;18.00;;;7.07;;
35245;SDS011;21379;50.962;6.960;2022-12-07T11:54:23;14.70;;;4.90;;
35245;SDS011;21379;50.962;6.960;2022-12-07T11:56:53;11.05;;;5.72;;
35245;SDS011;21379;50.962;6.960;2022-12-07T11:59:23;16.25;;;5.63;;
35245;SDS011;21379;50.962;6.960;2022-12-07T12:02:00;17.63;;;5.53;;
35245;SDS011;21379;50.962;6.960;2022-12-07T12:04:42;19.33;;;6.57;;
35245;SDS011;21379;50.962;6.960;2022-12-07T12:07:19;17.00;;;5.55;;
35245;SDS011;21379;50.962;6.960;2022-12-07T12:09:49;15.40;;;5.68;;
35245;SDS011;21379;50.962;6.960;2022-12-07T12:12:22;16.00;;;6.25;;
35245;SDS011;21379;50.962;6.960;2022-12-07T12:15:11;23.10;;;5.93;;
35245;SDS011;21379;50.962;6.960;2022-12-07T12:17:52;12.40;;;6.30;;
35245;SDS011;21379;50.962;6.960;2022-12-07T12:20:40;17.30;;;6.65;;
35245;SDS011;21379;50.962;6.960;2022-12-07T12:23:11;19.45;;;6.72;;
35245;SDS011;21379;50.962;6.960;2022-12-07T12:25:41;17.38;;;6.57;;
35245;SDS011;21379;50.962;6.960;2022-12-07T12:28:18;16.13;;;7.45;;
35245;SDS011;21379;50.962;6.960;2022-12-07T12:31:04;13.45;;;6.25;;
35245;SDS011;21379;50.962;6.960;2022-12-07T12:33:35;11.73;;;5.90;;
35245;SDS011;21379;50.962;6.960;2022-12-07T12:36:19;17.67;;;6.28;;
35245;SDS011;21379;50.962;6.960;2022-12-07T12:38:52;16.15;;;6.55;;
35245;SDS011;21379;50.962;6.960;2022-12-07T12:41:52;23.35;;;6.43;;
35245;SDS011;21379;50.962;6.960;2022-12-07T12:47:43;23.90;;;7.15;;
35245;SDS011;21379;50.962;6.960;2022-12-07T12:50:21;15.00;;;6.18;;
35245;SDS011;21379;50.962;6.960;2022-12-07T12:52:52;25.23;;;6.75;;
35245;SDS011;21379;50.962;6.960;2022-12-07T12:58:31;16.67;;;7.05;;
35245;SDS011;21379;50.962;6.960;2022-12-07T13:04:22;17.67;;;5.80;;
35245;SDS011;21379;50.962;6.960;2022-12-07T13:06:54;15.70;;;5.97;;
35245;SDS011;21379;50.962;6.960;2022-12-07T13:09:22;14.82;;;6.05;;
35245;SDS011;21379;50.962;6.960;2022-12-07T13:11:56;17.95;;;6.80;;
35245;SDS011;21379;50.962;6.960;2022-12-07T13:14:51;13.20;;;5.93;;
35245;SDS011;21379;50.962;6.960;2022-12-07T13:20:45;17.20;;;6.00;;
35245;SDS011;21379;50.962;6.960;2022-12-07T13:23:21;12.38;;;6.03;;
35245;SDS011;21379;50.962;6.960;2022-12-07T13:25:54;14.93;;;6.30;;
35245;SDS011;21379;50.962;6.960;2022-12-07T13:28:43;17.80;;;6.32;;
35245;SDS011;21379;50.962;6.960;2022-12-07T13:31:18;20.17;;;6.25;;
35245;SDS011;21379;50.962;6.960;2022-12-07T13:33:57;23.38;;;5.80;;
35245;SDS011;21379;50.962;6.960;2022-12-07T13:36:24;15.13;;;6.45;;
35245;SDS011;21379;50.962;6.960;2022-12-07T13:38:56;25.17;;;6.57;;
35245;SDS011;21379;50.962;6.960;2022-12-07T13:41:24;12.32;;;5.35;;
35245;SDS011;21379;50.962;6.960;2022-12-07T13:43:55;21.63;;;6.25;;
35245;SDS011;21379;50.962;6.960;2022-12-07T13:48:59;13.60;;;5.85;;
35245;SDS011;21379;50.962;6.960;2022-12-07T13:51:26;13.90;;;6.05;;
35245;SDS011;21379;50.962;6.960;2022-12-07T13:53:59;12.52;;;6.25;;
35245;SDS011;21379;50.962;6.960;2022-12-07T13:56:30;12.70;;;5.60;;
35245;SDS011;21379;50.962;6.960;2022-12-07T13:58:59;18.02;;;6.25;;
35245;SDS011;21379;50.962;6.960;2022-12-07T14:01:27;16.65;;;5.45;;
35245;SDS011;21379;50.962;6.960;2022-12-07T14:03:56;13.13;;;6.93;;
35245;SDS011;21379;50.962;6.960;2022-12-07T14:06:46;12.95;;;6.60;;
35245;SDS011;21379;50.962;6.960;2022-12-07T14:09:18;24.95;;;6.45;;
35245;SDS011;21379;50.962;6.960;2022-12-07T14:11:47;15.55;;;7.07;;
35245;SDS011;21379;50.962;6.960;2022-12-07T14:14:16;12.13;;;6.57;;
35245;SDS011;21379;50.962;6.960;2022-12-07T14:16:54;15.57;;;6.28;;
35245;SDS011;21379;50.962;6.960;2022-12-07T14:19:39;8.95;;;4.80;;
35245;SDS011;21379;50.962;6.960;2022-12-07T14:22:19;17.52;;;6.82;;
35245;SDS011;21379;50.962;6.960;2022-12-07T14:24:59;15.55;;;6.20;;
35245;SDS011;21379;50.962;6.960;2022-12-07T14:27:30;11.43;;;5.43;;
35245;SDS011;21379;50.962;6.960;2022-12-07T14:30:01;18.45;;;6.82;;
35245;SDS011;21379;50.962;6.960;2022-12-07T14:32:28;15.57;;;7.28;;
35245;SDS011;21379;50.962;6.960;2022-12-07T14:34:59;13.25;;;5.97;;
35245;SDS011;21379;50.962;6.960;2022-12-07T14:37:29;12.75;;;5.40;;
35245;SDS011;21379;50.962;6.960;2022-12-07T14:39:56;12.98;;;5.95;;
35245;SDS011;21379;50.962;6.960;2022-12-07T14:42:26;18.23;;;6.95;;
35245;SDS011;21379;50.962;6.960;2022-12-07T14:44:55;11.40;;;6.03;;
35245;SDS011;21379;50.962;6.960;2022-12-07T14:47:23;13.50;;;6.32;;
35245;SDS011;21379;50.962;6.960;2022-12-07T14:49:51;13.48;;;6.80;;
35245;SDS011;21379;50.962;6.960;2022-12-07T14:52:18;15.32;;;5.70;;
35245;SDS011;21379;50.962;6.960;2022-12-07T14:54:48;14.18;;;6.07;;
35245;SDS011;21379;50.962;6.960;2022-12-07T14:57:15;19.65;;;6.40;;
35245;SDS011;21379;50.962;6.960;2022-12-07T14:59:43;17.52;;;6.47;;
35245;SDS011;21379;50.962;6.960;2022-12-07T15:02:10;21.23;;;6.95;;
35245;SDS011;21379;50.962;6.960;2022-12-07T15:04:38;13.05;;;6.32;;
35245;SDS011;21379;50.962;6.960;2022-12-07T15:07:06;19.63;;;6.38;;